Time;durP1;ratioP1;P1;durP2;ratioP2;P2;SDS_P1;SDS_P2;PMS_P1;PMS_P2;Temp;Humidity;BMP_temperature;BMP_pressure;BME280_temperature;BME280_humidity;BME280_pressure;Samples;Min_cycle;Max_cycle;Signal;HPM_P1;HPM_P2
2023/08/04 00:00:18;;;;;;;6.35;3.42;;;;;;;16.33;87.26;98031.66;5012867;28;20060;-83
2023/08/04 00:02:44;;;;;;;8.85;3.63;;;;;;;16.30;87.48;98043.03;5006342;28;20034;-83
2023/08/04 00:05:09;;;;;;;4.57;3.20;;;;;;;16.27;87.27;98026.69;5028227;28;20036;-84
2023/08/04 00:07:36;;;;;;;4.68;3.10;;;;;;;16.34;87.01;98038.63;5025852;28;20033;-83
2023/08/04 00:10:03;;;;;;;7.72;3.28;;;;;;;16.40;86.83;98045.47;5028902;28;20029;-82
2023/08/04 00:12:29;;;;;;;5.93;3.30;;;;;;;16.43;86.87;98050.25;5025842;28;20041;-82
2023/08/04 00:14:54;;;;;;;5.57;3.40;;;;;;;16.26;87.69;98058.22;5031207;28;20029;-83
2023/08/04 00:17:20;;;;;;;5.70;3.88;;;;;;;16.29;86.87;98046.03;5046064;28;20033;-83
2023/08/04 00:19:46;;;;;;;6.43;3.00;;;;;;;16.18;86.99;98034.72;5029487;28;20473;-82
2023/08/04 00:22:11;;;;;;;8.05;3.80;;;;;;;16.25;87.58;98045.84;5028261;28;20030;-83
2023/08/04 00:24:36;;;;;;;6.55;3.60;;;;;;;16.35;86.65;98045.63;5046539;28;20503;-83
2023/08/04 00:27:02;;;;;;;6.30;3.35;;;;;;;16.15;88.04;98046.06;5030741;28;20033;-83
2023/08/04 00:29:28;;;;;;;8.40;4.18;;;;;;;16.28;87.08;98033.66;5012829;28;20048;-83
2023/08/04 00:31:54;;;;;;;11.20;3.58;;;;;;;16.08;88.30;98044.88;5005682;28;20030;-83
2023/08/04 00:34:19;;;;;;;5.13;3.20;;;;;;;16.37;86.78;98051.50;5031522;28;20036;-83
2023/08/04 00:36:46;;;;;;;4.43;3.55;;;;;;;16.22;87.37;98054.53;5021754;28;20033;-82
2023/08/04 00:39:13;;;;;;;9.30;3.88;;;;;;;15.98;87.36;98037.84;5028201;28;20449;-83
2023/08/04 00:41:39;;;;;;;13.98;4.07;;;;;;;16.18;87.50;98058.13;5030637;28;20030;-83
2023/08/04 00:44:04;;;;;;;9.85;3.63;;;;;;;16.17;87.41;98067.28;5028300;28;20496;-83
2023/08/04 00:46:30;;;;;;;4.95;3.30;;;;;;;16.31;87.19;98071.56;5027113;28;20029;-83
2023/08/04 00:48:57;;;;;;;3.67;3.30;;;;;;;16.15;86.75;98054.16;5026995;28;20076;-83
2023/08/04 00:51:23;;;;;;;7.95;3.92;;;;;;;16.24;86.42;98062.31;5021205;28;20037;-83
2023/08/04 00:53:49;;;;;;;4.00;3.05;;;;;;;16.29;86.66;98068.34;5022379;28;20030;-83
2023/08/04 00:56:15;;;;;;;3.58;3.28;;;;;;;16.27;86.27;98073.25;5029057;28;20534;-83
2023/08/04 00:58:40;;;;;;;3.00;2.72;;;;;;;16.36;86.46;98092.16;5028631;28;20037;-83
2023/08/04 01:01:05;;;;;;;11.48;3.03;;;;;;;16.28;86.50;98085.63;5011773;28;20036;-83
2023/08/04 01:03:31;;;;;;;12.75;3.25;;;;;;;16.35;86.74;98098.69;5012067;28;20124;-83
2023/08/04 01:06:00;;;;;;;3.08;2.58;;;;;;;16.21;86.55;98085.25;5025747;28;20037;-83
2023/08/04 01:08:31;;;;;;;7.20;2.92;;;;;;;16.30;87.00;98099.59;5027606;28;20100;-83
2023/08/04 01:11:13;;;;;;;3.53;2.78;;;;;;;16.33;86.59;98107.06;5028635;28;20025;-83
2023/08/04 01:13:42;;;;;;;6.82;2.50;;;;;;;16.16;86.90;98098.81;5029455;28;20018;-83
2023/08/04 01:16:08;;;;;;;4.82;2.10;;;;;;;16.19;86.37;98095.53;5029183;28;20060;-83
2023/08/04 01:18:34;;;;;;;6.70;2.50;;;;;;;16.11;86.74;98092.75;5027184;28;20033;-82
2023/08/04 01:21:04;;;;;;;5.63;2.65;;;;;;;15.96;88.49;98107.34;5028778;28;20094;-82
2023/08/04 01:23:29;;;;;;;2.70;2.45;;;;;;;16.20;87.19;98120.56;5012214;28;20032;-82
2023/08/04 01:25:54;;;;;;;2.92;2.42;;;;;;;16.26;86.63;98120.16;5027989;28;20037;-82
2023/08/04 01:28:21;;;;;;;3.75;2.92;;;;;;;15.90;87.93;98119.28;5007727;28;20073;-82
2023/08/04 01:30:50;;;;;;;6.07;2.95;;;;;;;16.07;87.92;98130.25;5028792;28;20067;-82
2023/08/04 01:33:16;;;;;;;13.77;2.97;;;;;;;16.26;86.82;98128.22;5004381;28;20394;-82
2023/08/04 01:35:42;;;;;;;5.50;2.78;;;;;;;16.20;87.39;98129.44;5028884;28;20029;-82
2023/08/04 01:38:08;;;;;;;3.78;2.72;;;;;;;16.24;86.62;98125.03;5029076;28;20025;-82
2023/08/04 01:40:34;;;;;;;4.97;3.28;;;;;;;16.00;88.10;98140.63;5030428;28;20103;-83
2023/08/04 01:42:59;;;;;;;8.48;3.40;;;;;;;16.09;86.94;98124.56;5027232;28;20049;-81
2023/08/04 01:45:24;;;;;;;6.05;3.15;;;;;;;16.23;86.86;98144.16;5010084;28;20040;-82
2023/08/04 01:47:50;;;;;;;6.85;4.10;;;;;;;16.01;87.35;98138.75;5026056;28;20037;-82
2023/08/04 01:50:15;;;;;;;4.68;3.05;;;;;;;16.14;87.31;98135.22;5028491;28;20481;-82
2023/08/04 01:52:41;;;;;;;4.80;3.80;;;;;;;16.15;87.49;98142.19;5022998;28;20040;-82
2023/08/04 01:55:07;;;;;;;4.55;3.42;;;;;;;16.16;86.50;98139.19;5011227;28;20037;-82
2023/08/04 01:57:32;;;;;;;7.47;4.03;;;;;;;16.15;86.35;98132.22;5027907;28;20037;-82
2023/08/04 01:59:58;;;;;;;5.95;3.78;;;;;;;16.16;86.28;98133.03;5008744;28;20030;-83
2023/08/04 02:02:23;;;;;;;8.57;4.30;;;;;;;16.27;86.58;98137.88;5025049;28;20021;-82
2023/08/04 02:04:48;;;;;;;11.90;4.55;;;;;;;16.10;86.24;98137.72;5027445;28;20092;-82
2023/08/04 02:07:14;;;;;;;7.32;3.55;;;;;;;16.07;86.84;98141.03;5012190;28;20148;-83
2023/08/04 02:09:39;;;;;;;10.73;4.82;;;;;;;16.08;86.41;98158.75;5043815;28;20042;-82
2023/08/04 02:12:05;;;;;;;16.30;4.38;;;;;;;16.24;86.67;98157.34;5027616;28;20128;-83
2023/08/04 02:14:30;;;;;;;8.27;4.22;;;;;;;16.21;86.15;98160.63;5026920;28;20401;-83
2023/08/04 02:16:56;;;;;;;10.48;5.03;;;;;;;15.98;86.92;98147.41;5025944;28;20049;-83
2023/08/04 02:19:22;;;;;;;9.73;4.28;;;;;;;16.04;86.59;98160.47;5026886;28;20041;-82
2023/08/04 02:21:48;;;;;;;7.93;5.25;;;;;;;15.82;88.08;98154.97;5011121;28;20029;-82
2023/08/04 02:24:14;;;;;;;10.07;4.57;;;;;;;16.19;86.81;98164.72;5030203;28;20071;-82
2023/08/04 02:26:39;;;;;;;15.55;6.10;;;;;;;15.98;87.05;98172.44;5031856;28;20030;-82
2023/08/04 02:29:05;;;;;;;8.38;4.45;;;;;;;16.09;86.72;98173.03;5027449;28;20108;-83
2023/08/04 02:31:32;;;;;;;9.07;4.22;;;;;;;16.03;87.00;98163.47;5046650;28;20056;-82
2023/08/04 02:33:59;;;;;;;9.00;4.72;;;;;;;16.07;87.08;98173.34;5031009;28;20037;-82
2023/08/04 02:36:24;;;;;;;9.93;4.78;;;;;;;15.97;87.10;98178.91;5030504;28;20038;-82
2023/08/04 02:38:50;;;;;;;8.80;4.28;;;;;;;16.05;87.30;98191.69;5030777;28;20074;-82
2023/08/04 02:41:16;;;;;;;14.57;7.20;;;;;;;16.12;86.86;98178.59;5030079;28;20059;-82
2023/08/04 02:43:41;;;;;;;15.52;5.88;;;;;;;16.04;86.69;98183.88;5046563;28;20087;-82
2023/08/04 02:46:08;;;;;;;9.75;5.00;;;;;;;16.04;86.46;98189.25;5029912;28;20102;-82
2023/08/04 02:48:34;;;;;;;11.82;5.40;;;;;;;16.00;87.02;98189.09;5026308;28;20025;-83
2023/08/04 02:51:12;;;;;;;15.60;6.68;;;;;;;16.01;86.61;98198.72;5031235;28;20040;-83
2023/08/04 02:53:43;;;;;;;11.88;5.47;;;;;;;15.98;87.03;98195.84;5030016;28;20131;-82
2023/08/04 02:56:13;;;;;;;8.60;5.55;;;;;;;15.95;87.59;98202.63;5030429;28;20486;-83
2023/08/04 02:58:39;;;;;;;11.45;6.47;;;;;;;16.03;87.07;98196.53;5029891;28;20091;-83
2023/08/04 03:01:05;;;;;;;8.07;6.07;;;;;;;15.73;88.59;98202.50;5027556;28;20392;-83
2023/08/04 03:03:31;;;;;;;14.75;6.47;;;;;;;15.69;87.98;98209.59;5031174;28;20029;-82
2023/08/04 03:05:57;;;;;;;12.25;5.47;;;;;;;15.59;88.45;98202.50;5029863;28;20033;-82
2023/08/04 03:08:23;;;;;;;15.00;6.35;;;;;;;15.36;89.00;98199.91;5012248;28;20152;-82
2023/08/04 03:10:48;;;;;;;9.25;6.35;;;;;;;15.35;89.23;98192.94;5029448;28;20489;-82
2023/08/04 03:13:14;;;;;;;11.80;6.82;;;;;;;15.43;89.66;98225.38;5029691;28;20037;-82
2023/08/04 03:15:39;;;;;;;12.90;6.90;;;;;;;15.24;90.82;98221.91;5028055;28;20061;-82
2023/08/04 03:18:04;;;;;;;10.63;6.07;;;;;;;15.56;88.96;98223.81;5029343;28;20037;-82
2023/08/04 03:20:36;;;;;;;6.72;5.00;;;;;;;15.81;87.81;98228.75;5010686;28;20485;-82
2023/08/04 03:23:02;;;;;;;12.65;5.60;;;;;;;15.89;87.71;98229.94;5028108;28;20021;-83
2023/08/04 03:25:27;;;;;;;14.95;6.82;;;;;;;15.67;87.55;98233.28;5028391;28;20107;-83
2023/08/04 03:27:52;;;;;;;10.18;5.47;;;;;;;15.76;87.72;98226.13;5031467;28;20052;-82
2023/08/04 03:30:18;;;;;;;11.45;5.93;;;;;;;16.01;86.29;98219.50;5029505;28;20366;-82
2023/08/04 03:32:43;;;;;;;10.23;5.00;;;;;;;16.04;86.55;98224.25;5046531;28;20044;-83
2023/08/04 03:35:08;;;;;;;13.75;6.25;;;;;;;15.77;86.78;98216.97;5014615;28;20044;-82
2023/08/04 03:37:34;;;;;;;12.60;6.03;;;;;;;15.60;87.76;98222.13;5029691;28;20030;-82
2023/08/04 03:39:59;;;;;;;11.05;5.13;;;;;;;15.48;88.25;98222.59;5013418;28;20473;-82
2023/08/04 03:42:25;;;;;;;7.30;4.63;;;;;;;15.93;86.87;98234.44;5029633;28;20124;-82
2023/08/04 03:44:59;;;;;;;10.75;5.25;;;;;;;15.72;87.66;98242.09;5030072;28;20397;-82
2023/08/04 03:47:24;;;;;;;12.55;5.75;;;;;;;15.58;87.69;98235.06;5028901;28;20116;-83
2023/08/04 03:49:50;;;;;;;9.43;5.32;;;;;;;15.69;87.06;98247.25;5030108;28;20656;-83
2023/08/04 03:52:15;;;;;;;15.35;6.50;;;;;;;15.59;87.17;98244.75;5029002;28;20474;-82
2023/08/04 03:54:40;;;;;;;9.68;5.45;;;;;;;15.82;86.88;98248.38;5028770;28;20037;-82
2023/08/04 03:57:06;;;;;;;11.70;5.55;;;;;;;15.82;86.66;98241.09;5030561;28;20025;-83
2023/08/04 03:59:31;;;;;;;12.43;5.25;;;;;;;15.89;86.22;98243.41;5029908;28;20442;-83
2023/08/04 04:01:57;;;;;;;11.05;6.55;;;;;;;15.70;86.27;98243.47;5009315;28;20030;-82
2023/08/04 04:04:22;;;;;;;14.07;5.05;;;;;;;15.90;86.48;98245.00;5008866;28;20634;-82
2023/08/04 04:06:47;;;;;;;9.40;5.55;;;;;;;15.85;86.51;98245.09;5019381;28;20021;-83
2023/08/04 04:09:14;;;;;;;13.13;5.47;;;;;;;15.67;86.78;98255.63;5009375;28;20388;-82
2023/08/04 04:11:40;;;;;;;13.85;5.05;;;;;;;15.56;86.71;98237.25;5033632;28;20025;-83
2023/08/04 04:14:05;;;;;;;11.50;6.50;;;;;;;15.67;86.72;98239.47;5029921;28;20473;-82
2023/08/04 04:16:31;;;;;;;8.93;4.75;;;;;;;15.75;86.47;98251.44;5029597;28;20032;-83
2023/08/04 04:18:56;;;;;;;14.95;6.15;;;;;;;15.80;86.62;98262.13;5013453;28;20079;-83
2023/08/04 04:21:21;;;;;;;14.50;6.35;;;;;;;15.83;86.76;98266.13;5012652;28;20048;-82
2023/08/04 04:23:47;;;;;;;14.75;6.20;;;;;;;15.84;86.10;98259.63;5025929;28;20451;-83
2023/08/04 04:26:12;;;;;;;14.35;5.50;;;;;;;15.88;86.15;98266.03;5030018;28;20037;-82
2023/08/04 04:28:37;;;;;;;12.73;5.10;;;;;;;15.82;86.12;98268.00;5030583;28;20059;-82
2023/08/04 04:31:03;;;;;;;5.90;4.72;;;;;;;15.84;86.60;98265.00;5030019;28;20386;-82
2023/08/04 04:33:29;;;;;;;7.78;4.50;;;;;;;15.77;86.79;98263.50;5005773;28;20126;-83
2023/08/04 04:35:54;;;;;;;8.00;4.57;;;;;;;15.91;86.15;98263.53;5029868;28;20021;-83
2023/08/04 04:38:19;;;;;;;9.95;4.70;;;;;;;16.01;85.39;98270.66;5028858;28;20087;-83
2023/08/04 04:40:54;;;;;;;7.38;4.90;;;;;;;15.97;85.86;98258.84;5021842;28;21869;-83
2023/08/04 04:43:19;;;;;;;10.13;5.35;;;;;;;15.94;85.66;98257.56;5012381;28;20029;-82
2023/08/04 04:45:49;;;;;;;6.85;4.50;;;;;;;15.91;86.12;98250.09;5011177;28;20992;-82
2023/08/04 04:48:14;;;;;;;6.35;4.63;;;;;;;15.91;86.19;98266.22;5029711;28;20104;-83
2023/08/04 04:50:40;;;;;;;13.43;6.20;;;;;;;15.88;86.57;98266.81;5013346;28;20120;-83
2023/08/04 04:53:05;;;;;;;12.80;4.35;;;;;;;15.96;86.63;98279.59;5028329;28;20033;-82
2023/08/04 04:55:30;;;;;;;11.80;5.45;;;;;;;15.85;86.69;98258.53;5027472;28;20385;-83
2023/08/04 04:57:56;;;;;;;10.10;4.97;;;;;;;15.94;86.14;98271.03;5008754;28;20075;-82
2023/08/04 05:00:21;;;;;;;13.32;4.85;;;;;;;16.04;86.20;98287.00;5027612;28;20489;-82
2023/08/04 05:02:47;;;;;;;6.65;4.85;;;;;;;15.96;86.22;98274.22;5043659;28;20432;-83
2023/08/04 05:05:12;;;;;;;11.93;4.88;;;;;;;15.96;86.33;98282.31;5028452;28;20076;-83
2023/08/04 05:07:37;;;;;;;5.72;4.22;;;;;;;15.84;86.79;98273.06;5028098;28;20033;-83
2023/08/04 05:10:03;;;;;;;9.35;4.78;;;;;;;15.91;86.41;98284.28;5009814;28;20497;-83
2023/08/04 05:12:28;;;;;;;12.57;5.18;;;;;;;16.01;86.07;98294.88;5028795;28;20037;-83
2023/08/04 05:14:54;;;;;;;7.68;4.63;;;;;;;16.07;86.42;98291.78;5008627;28;20033;-83
2023/08/04 05:17:19;;;;;;;5.15;4.65;;;;;;;16.05;86.20;98293.19;5027663;28;20029;-83
2023/08/04 05:19:45;;;;;;;10.10;5.07;;;;;;;16.04;85.99;98295.06;5029689;28;20041;-83
2023/08/04 05:22:10;;;;;;;6.95;4.78;;;;;;;15.82;86.61;98268.00;5027343;28;20044;-83
2023/08/04 05:24:35;;;;;;;10.52;4.45;;;;;;;16.09;86.28;98292.28;5010317;28;20037;-83
2023/08/04 05:27:02;;;;;;;7.60;5.22;;;;;;;16.08;86.73;98297.94;5027324;28;20053;-83
2023/08/04 05:29:27;;;;;;;9.15;4.43;;;;;;;15.93;87.54;98274.81;5027012;28;20491;-83
2023/08/04 05:31:53;;;;;;;7.63;4.35;;;;;;;15.95;88.21;98279.88;5027378;28;20040;-83
2023/08/04 05:34:18;;;;;;;6.32;5.13;;;;;;;16.20;86.66;98276.75;5043302;28;20550;-83
2023/08/04 05:36:43;;;;;;;8.65;5.28;;;;;;;16.20;87.08;98296.38;5008890;28;20029;-83
2023/08/04 05:39:09;;;;;;;14.80;4.38;;;;;;;16.20;86.88;98285.63;5022118;28;20037;-83
2023/08/04 05:41:34;;;;;;;8.27;4.18;;;;;;;16.41;85.84;98286.00;5007647;28;20030;-82
2023/08/04 05:44:00;;;;;;;8.30;4.00;;;;;;;16.41;84.87;98273.34;5028149;28;20040;-83
2023/08/04 05:46:25;;;;;;;13.20;4.82;;;;;;;16.42;85.54;98301.09;5002454;28;20060;-83
2023/08/04 05:48:50;;;;;;;6.93;4.65;;;;;;;16.55;85.25;98307.59;5027851;28;20041;-83
2023/08/04 05:51:16;;;;;;;6.15;4.63;;;;;;;16.40;85.57;98306.75;5025803;28;20044;-83
2023/08/04 05:53:42;;;;;;;9.80;5.43;;;;;;;16.40;85.27;98303.28;5012130;28;20028;-83
2023/08/04 05:56:16;;;;;;;10.35;5.68;;;;;;;16.35;85.64;98303.38;5012591;28;20029;-83
2023/08/04 05:58:42;;;;;;;9.13;5.57;;;;;;;16.54;85.10;98322.97;5031641;28;20103;-82
2023/08/04 06:01:07;;;;;;;10.75;5.47;;;;;;;16.57;85.15;98321.56;4998776;28;20444;-83
2023/08/04 06:03:32;;;;;;;11.18;4.75;;;;;;;16.56;84.93;98314.56;5031073;28;20483;-83
2023/08/04 06:05:58;;;;;;;10.10;5.97;;;;;;;16.61;84.44;98323.38;5032593;28;20029;-83
2023/08/04 06:08:24;;;;;;;8.10;5.60;;;;;;;16.60;84.54;98327.13;5016833;28;20175;-83
2023/08/04 06:10:49;;;;;;;10.82;5.85;;;;;;;16.65;84.65;98337.03;5046628;28;20064;-82
2023/08/04 06:13:15;;;;;;;9.73;5.35;;;;;;;16.49;85.21;98333.78;5029464;28;20099;-83
2023/08/04 06:15:40;;;;;;;9.57;6.00;;;;;;;16.50;85.27;98338.13;5046787;28;20426;-83
2023/08/04 06:18:05;;;;;;;15.93;6.38;;;;;;;16.41;85.09;98335.31;5033674;28;20033;-83
2023/08/04 06:20:32;;;;;;;13.32;6.05;;;;;;;16.55;84.89;98345.31;5035443;28;20393;-83
2023/08/04 06:22:57;;;;;;;8.35;5.43;;;;;;;16.47;85.42;98341.38;5034581;28;20025;-83
2023/08/04 06:25:23;;;;;;;8.60;5.82;;;;;;;16.43;85.33;98335.81;5015412;28;20117;-83
2023/08/04 06:27:49;;;;;;;11.15;6.60;;;;;;;16.44;85.58;98339.31;5030921;28;20061;-83
2023/08/04 06:30:15;;;;;;;11.73;5.35;;;;;;;16.49;85.18;98353.47;5032035;28;20099;-82
2023/08/04 06:32:40;;;;;;;10.27;6.00;;;;;;;16.47;85.50;98347.56;5043744;28;20026;-83
2023/08/04 06:35:07;;;;;;;8.05;4.93;;;;;;;16.46;85.04;98359.47;5033078;28;20091;-83
2023/08/04 06:37:32;;;;;;;9.95;5.53;;;;;;;16.48;85.49;98362.66;5030343;28;20061;-82
2023/08/04 06:39:57;;;;;;;9.63;5.10;;;;;;;16.45;85.77;98360.53;5030113;28;20071;-83
2023/08/04 06:42:23;;;;;;;12.38;5.90;;;;;;;16.32;85.42;98361.31;5032612;28;20041;-83
2023/08/04 06:44:48;;;;;;;9.60;5.80;;;;;;;16.44;85.86;98374.31;5016668;28;20029;-83
2023/08/04 06:47:14;;;;;;;10.30;5.57;;;;;;;16.44;85.26;98356.28;5029505;28;20040;-82
2023/08/04 06:49:41;;;;;;;10.00;5.55;;;;;;;16.46;85.64;98378.31;5032058;28;20044;-82
2023/08/04 06:52:07;;;;;;;10.07;5.85;;;;;;;16.41;85.55;98374.91;5013632;28;20025;-82
2023/08/04 06:54:33;;;;;;;10.35;5.38;;;;;;;16.44;85.25;98364.34;5033736;28;20029;-83
2023/08/04 06:56:58;;;;;;;9.35;5.43;;;;;;;16.42;85.41;98374.59;5037836;28;20618;-83
2023/08/04 06:59:24;;;;;;;10.18;5.88;;;;;;;16.35;85.23;98358.06;5029254;28;20503;-83
2023/08/04 07:01:49;;;;;;;12.02;5.35;;;;;;;16.48;85.67;98384.22;5029706;28;20034;-83
2023/08/04 07:04:15;;;;;;;10.90;5.28;;;;;;;16.54;85.10;98381.44;5013526;28;20126;-82
2023/08/04 07:06:40;;;;;;;9.40;5.05;;;;;;;16.47;85.50;98371.81;5030577;28;20037;-83
2023/08/04 07:09:05;;;;;;;10.82;5.25;;;;;;;16.47;85.04;98377.19;5033435;28;20044;-83
2023/08/04 07:11:31;;;;;;;12.50;5.55;;;;;;;16.63;84.56;98377.75;5013120;28;20504;-83
2023/08/04 07:13:56;;;;;;;7.30;4.97;;;;;;;16.51;85.00;98382.84;5044469;28;20041;-83
2023/08/04 07:16:22;;;;;;;11.07;5.10;;;;;;;16.61;84.97;98389.91;5015019;28;20031;-83
2023/08/04 07:18:47;;;;;;;8.00;5.00;;;;;;;16.68;84.99;98398.41;5026417;28;20146;-83
2023/08/04 07:21:14;;;;;;;13.13;5.53;;;;;;;16.64;84.87;98394.72;5040539;28;20041;-82
2023/08/04 07:23:40;;;;;;;8.95;5.25;;;;;;;16.75;84.30;98399.63;5032473;28;20033;-83
2023/08/04 07:26:07;;;;;;;5.45;4.72;;;;;;;16.71;84.74;98408.63;5041877;28;20095;-83
2023/08/04 07:28:33;;;;;;;12.93;5.35;;;;;;;16.77;84.06;98410.91;5032302;28;20373;-83
2023/08/04 07:31:02;;;;;;;8.07;5.57;;;;;;;16.69;84.43;98408.09;5033026;28;20029;-83
2023/08/04 07:33:27;;;;;;;8.60;4.97;;;;;;;16.77;84.42;98407.41;5026944;28;20092;-83
2023/08/04 07:35:54;;;;;;;10.40;4.95;;;;;;;16.70;84.55;98397.03;5031896;28;20124;-83
2023/08/04 07:38:20;;;;;;;6.00;5.13;;;;;;;16.78;83.97;98415.19;5030691;28;20037;-83
2023/08/04 07:40:45;;;;;;;10.52;5.13;;;;;;;16.74;84.74;98426.88;5030482;28;20025;-83
2023/08/04 07:43:12;;;;;;;9.32;4.95;;;;;;;16.85;84.06;98423.69;5031175;28;20025;-83
2023/08/04 07:45:38;;;;;;;8.68;4.93;;;;;;;16.63;84.96;98423.56;5046641;28;20079;-83
2023/08/04 07:48:03;;;;;;;6.90;5.07;;;;;;;16.71;84.69;98427.47;5029544;28;20025;-83
2023/08/04 07:50:29;;;;;;;7.28;5.60;;;;;;;16.71;84.43;98416.69;5030247;28;20100;-83
2023/08/04 07:52:54;;;;;;;11.05;5.82;;;;;;;16.74;84.20;98432.25;5031253;28;20497;-83
2023/08/04 07:55:20;;;;;;;8.38;5.15;;;;;;;16.69;84.73;98433.16;5031308;28;20041;-83
2023/08/04 07:57:45;;;;;;;10.13;5.70;;;;;;;16.70;84.54;98428.56;5015910;28;20040;-83
2023/08/04 08:00:11;;;;;;;9.30;5.60;;;;;;;16.76;84.40;98433.56;5030571;28;20069;-82
2023/08/04 08:02:36;;;;;;;9.10;4.63;;;;;;;16.88;83.51;98438.47;5028516;28;20037;-83
2023/08/04 08:05:02;;;;;;;12.20;4.57;;;;;;;16.72;84.13;98429.06;5028500;28;20036;-83
2023/08/04 08:07:27;;;;;;;7.28;5.65;;;;;;;16.73;83.88;98430.66;4995832;28;20117;-83
2023/08/04 08:09:53;;;;;;;9.80;5.90;;;;;;;16.67;84.57;98438.03;5029121;28;20010;-83
2023/08/04 08:12:18;;;;;;;13.20;5.28;;;;;;;16.71;84.88;98430.16;5030315;28;20087;-83
2023/08/04 08:14:44;;;;;;;13.18;6.50;;;;;;;16.83;84.06;98436.66;5013075;28;20054;-83
2023/08/04 08:17:10;;;;;;;5.53;4.53;;;;;;;16.93;83.30;98443.75;5031296;28;20037;-83
2023/08/04 08:19:35;;;;;;;10.88;5.60;;;;;;;16.75;85.67;98441.94;5026547;28;20037;-83
2023/08/04 08:22:01;;;;;;;8.63;5.00;;;;;;;16.92;83.47;98442.97;5028501;28;20036;-83
2023/08/04 08:24:26;;;;;;;11.80;5.97;;;;;;;17.00;83.62;98458.44;5012869;28;20033;-83
2023/08/04 08:26:51;;;;;;;10.18;5.30;;;;;;;16.96;83.45;98443.97;5029827;28;20089;-83
2023/08/04 08:29:17;;;;;;;10.20;5.07;;;;;;;17.01;83.23;98453.84;5033028;28;20037;-82
2023/08/04 08:31:42;;;;;;;7.07;4.50;;;;;;;17.05;83.01;98461.03;5030896;28;20025;-83
2023/08/04 08:34:08;;;;;;;7.10;5.20;;;;;;;17.01;82.95;98451.97;5030897;28;20048;-83
2023/08/04 08:36:33;;;;;;;6.95;4.75;;;;;;;17.02;83.60;98458.13;5011871;28;20029;-83
2023/08/04 08:38:58;;;;;;;9.85;5.40;;;;;;;16.98;84.11;98457.13;5030583;28;20377;-83
2023/08/04 08:41:24;;;;;;;8.05;5.10;;;;;;;17.05;83.46;98462.94;5031035;28;20033;-83
2023/08/04 08:43:49;;;;;;;13.93;5.32;;;;;;;17.18;82.32;98462.94;5013173;28;20032;-83
2023/08/04 08:46:15;;;;;;;8.45;5.40;;;;;;;17.06;82.81;98470.72;5014241;28;20101;-83
2023/08/04 08:48:44;;;;;;;9.88;7.00;;;;;;;16.99;82.78;98458.75;5030822;28;20025;-84
2023/08/04 08:51:18;;;;;;;9.93;5.40;;;;;;;16.92;82.48;98439.47;5025187;28;20021;-83
2023/08/04 08:53:46;;;;;;;10.60;5.28;;;;;;;17.12;82.35;98480.28;5029362;28;20037;-83
2023/08/04 08:56:15;;;;;;;8.80;5.05;;;;;;;17.09;82.95;98474.72;5027686;28;20502;-83
2023/08/04 08:58:42;;;;;;;7.75;5.28;;;;;;;17.16;82.76;98478.63;5033069;28;20044;-83
2023/08/04 09:01:08;;;;;;;8.07;4.93;;;;;;;17.14;82.30;98482.72;5031285;28;20086;-83
2023/08/04 09:03:38;;;;;;;8.75;4.93;;;;;;;17.22;82.05;98477.41;5026720;28;20029;-83
2023/08/04 09:06:04;;;;;;;15.73;5.03;;;;;;;17.26;82.53;98488.41;5033631;28;20117;-83
2023/08/04 09:08:30;;;;;;;10.38;4.75;;;;;;;17.19;82.14;98474.50;5033987;28;20087;-83
2023/08/04 09:10:59;;;;;;;10.93;5.38;;;;;;;17.37;81.53;98488.97;5035447;28;20053;-83
2023/08/04 09:13:26;;;;;;;7.40;5.05;;;;;;;17.32;81.73;98475.63;5031357;28;20576;-83
2023/08/04 09:16:02;;;;;;;7.68;4.88;;;;;;;17.36;82.47;98490.09;5026840;28;20485;-83
2023/08/04 09:18:32;;;;;;;9.50;4.68;;;;;;;17.52;81.08;98488.69;5026721;28;20060;-83
2023/08/04 09:21:13;;;;;;;7.78;4.90;;;;;;;17.54;81.23;98481.91;5024136;28;20056;-83
2023/08/04 09:23:50;;;;;;;8.43;4.88;;;;;;;17.47;81.54;98480.69;5025053;28;20029;-83
2023/08/04 09:26:16;;;;;;;9.55;4.50;;;;;;;17.52;80.72;98480.59;5028252;28;20025;-83
2023/08/04 09:28:41;;;;;;;7.93;4.43;;;;;;;17.50;81.00;98472.81;5038969;28;20504;-83
2023/08/04 09:31:09;;;;;;;6.22;4.30;;;;;;;17.61;81.00;98484.19;5032448;28;20057;-83
2023/08/04 09:33:38;;;;;;;8.70;4.82;;;;;;;17.49;80.61;98473.91;5033248;28;20457;-83
2023/08/04 09:36:15;;;;;;;8.05;4.95;;;;;;;17.44;80.64;98455.13;5027211;28;20554;-83
2023/08/04 09:38:42;;;;;;;6.38;4.20;;;;;;;17.43;80.16;98463.53;5036227;28;20108;-83
2023/08/04 09:41:15;;;;;;;9.15;5.22;;;;;;;17.62;80.57;98493.91;5033018;28;20076;-83
2023/08/04 09:43:49;;;;;;;6.75;4.65;;;;;;;17.55;80.41;98488.91;5034119;28;20389;-83
2023/08/04 09:46:16;;;;;;;16.55;5.00;;;;;;;17.59;80.88;98492.59;5034462;28;20041;-83
2023/08/04 09:48:42;;;;;;;10.15;5.55;;;;;;;17.63;80.02;98477.41;5035877;28;20366;-83
2023/08/04 09:51:09;;;;;;;5.30;4.28;;;;;;;17.61;80.22;98489.59;5031870;28;20033;-83
2023/08/04 09:53:44;;;;;;;8.38;4.55;;;;;;;17.58;80.33;98477.50;5026911;28;20124;-83
2023/08/04 09:56:11;;;;;;;6.57;5.37;;;;;;;17.73;80.15;98495.28;5050816;28;20036;-84
2023/08/04 09:58:38;;;;;;;9.95;4.60;;;;;;;17.72;80.09;98486.38;5022836;28;20041;-83
2023/08/04 10:01:04;;;;;;;7.82;4.72;;;;;;;17.77;79.80;98488.97;5017753;28;20037;-83
2023/08/04 10:03:29;;;;;;;10.40;4.72;;;;;;;17.80;79.52;98479.47;5012808;28;20048;-83
2023/08/04 10:06:03;;;;;;;7.07;4.75;;;;;;;17.85;79.48;98493.66;5015757;28;20040;-83
2023/08/04 10:08:33;;;;;;;5.70;3.90;;;;;;;17.85;78.82;98484.75;5001653;28;20045;-83
2023/08/04 10:10:59;;;;;;;9.10;4.60;;;;;;;17.94;78.94;98491.81;5011366;28;20033;-83
2023/08/04 10:13:27;;;;;;;10.05;5.18;;;;;;;17.92;78.57;98482.44;5032382;28;20029;-82
2023/08/04 10:15:57;;;;;;;7.75;4.57;;;;;;;17.94;78.51;98501.81;5032643;28;20420;-83
2023/08/04 10:18:24;;;;;;;7.85;4.70;;;;;;;17.96;78.80;98510.41;5032766;28;20025;-82
2023/08/04 10:20:52;;;;;;;5.55;4.20;;;;;;;17.95;78.77;98504.22;5029761;28;20029;-83
2023/08/04 10:23:18;;;;;;;11.52;4.32;;;;;;;18.02;78.42;98505.72;5028523;28;20033;-83
2023/08/04 10:26:02;;;;;;;6.15;4.90;;;;;;;18.04;78.11;98517.00;5029938;28;20033;-83
2023/08/04 10:28:31;;;;;;;11.60;5.18;;;;;;;18.03;78.29;98513.50;5032553;28;20032;-83
2023/08/04 10:31:12;;;;;;;6.75;4.75;;;;;;;17.93;77.36;98484.81;5037089;28;20069;-83
2023/08/04 10:33:37;;;;;;;8.95;5.22;;;;;;;18.03;77.22;98501.91;5033052;28;20025;-83
2023/08/04 10:36:07;;;;;;;7.50;4.70;;;;;;;18.13;76.77;98515.97;5017012;28;20447;-83
2023/08/04 10:38:46;;;;;;;9.10;5.07;;;;;;;18.18;77.17;98502.34;5032935;28;20045;-82
2023/08/04 10:41:12;;;;;;;5.35;4.28;;;;;;;18.12;76.93;98491.97;5035223;28;20072;-83
2023/08/04 10:43:39;;;;;;;6.22;4.18;;;;;;;18.23;77.19;98501.44;5017743;28;20026;-83
2023/08/04 10:46:10;;;;;;;5.05;4.00;;;;;;;18.38;76.12;98506.47;5031128;28;20068;-82
2023/08/04 10:48:38;;;;;;;4.85;3.92;;;;;;;18.41;76.15;98500.47;5033867;28;20026;-83
2023/08/04 10:51:05;;;;;;;12.23;4.55;;;;;;;18.51;75.46;98500.22;5027661;28;20523;-83
2023/08/04 10:53:30;;;;;;;5.97;3.75;;;;;;;18.55;76.43;98506.63;5020570;28;20083;-83
2023/08/04 10:55:57;;;;;;;7.72;4.07;;;;;;;18.67;75.68;98515.75;5016478;28;20489;-83
2023/08/04 10:58:25;;;;;;;5.13;4.28;;;;;;;18.74;75.53;98511.84;5027423;28;20505;-83
2023/08/04 11:00:52;;;;;;;9.52;3.97;;;;;;;18.82;75.31;98517.28;5009930;28;20044;-83
2023/08/04 11:03:36;;;;;;;6.40;3.60;;;;;;;18.85;75.02;98518.59;5033949;28;20029;-83
2023/08/04 11:06:03;;;;;;;5.10;3.63;;;;;;;18.95;74.61;98521.00;5034027;28;20083;-83
2023/08/04 11:08:29;;;;;;;8.13;4.00;;;;;;;18.97;74.10;98503.38;5028004;28;20034;-83
2023/08/04 11:10:57;;;;;;;7.20;3.70;;;;;;;19.01;74.54;98501.63;5030016;28;20085;-84
2023/08/04 11:13:24;;;;;;;3.88;3.15;;;;;;;19.17;73.50;98504.72;5020456;28;20045;-83
2023/08/04 11:15:53;;;;;;;5.20;3.35;;;;;;;19.22;70.61;98502.66;5031017;28;20040;-83
2023/08/04 11:18:31;;;;;;;4.38;3.78;;;;;;;19.35;69.92;98501.00;5028536;28;20026;-83
2023/08/04 11:21:03;;;;;;;7.45;3.80;;;;;;;19.49;73.10;98501.66;5029055;28;20025;-83
2023/08/04 11:23:30;;;;;;;5.78;3.60;;;;;;;19.54;72.95;98509.66;5034226;28;20061;-82
2023/08/04 11:25:57;;;;;;;6.97;3.60;;;;;;;19.80;72.00;98504.28;5031904;28;20030;-83